Observations for BARI PALESE MACCHIE, Italy (LIBD)

LIBD 221250Z 35004KT 5000 -RA BR SCT006 SCT030 08/07 Q1002  
LIBD 221220Z VRB03KT 5000 BR SCT006 SCT030 09/07 Q1002  
LIBD 221150Z VRB03KT 5000 BR FEW006 09/07 Q1003 
LIBD 221120Z VRB03KT 5000 BR FEW006 09/07 Q1003 
LIBD 221050Z VRB03KT 5000 BR FEW006 08/07 Q1004 
LIBD 221020Z 36004KT 330V030 4000 BR FEW006 08/07 Q1005 
LIBD 220950Z 02004KT 320V020 4000 BR FEW045 08/07 Q1005 
LIBD 220920Z 02004KT 340V040 3000 BR FEW045 08/07 Q1005 
LIBD 220850Z VRB03KT 1500 R07/1100V1400N BR FEW045 08/07 Q1005  
LIBD 220820Z VRB03KT 1500 BR FEW045 07/06 Q1005 
LIBD 220750Z VRB02KT 1200 R07/1500V1600 BR FEW045 07/06 Q1005   
LIBD 220720Z VRB03KT 1500 R07/0900 BR FEW045 06/06 Q1005
LIBD 220650Z VRB02KT 3000 BR FEW045 06/05 Q1005 
LIBD 220620Z 29004KT 250V340 3000 BR FEW045 05/05 Q1006 
LIBD 220550Z 29004KT 4000 BR SCT045 05/05 Q1006 
LIBD 220520Z VRB03KT 5000 BR FEW020 SCT045 06/05 Q1006  
LIBD 220450Z 29003KT 7000 FEW020 SCT045 06/05 Q1006 
LIBD 220420Z 29003KT 8000 FEW020 SCT045 06/05 Q1006 
LIBD 220350Z VRB02KT 8000 FEW020 SCT045 07/06 Q1007 
LIBD 220320Z VRB02KT 8000 FEW020 SCT045 07/06 Q1007 
LIBD 220250Z VRB02KT 8000 FEW020 SCT045 07/06 Q1007 
LIBD 220220Z VRB03KT 8000 FEW020 SCT045 07/06 Q1008 
LIBD 220150Z VRB03KT 8000 FEW020 SCT045 07/06 Q1008 
LIBD 220120Z 29002KT 9999 SCT045 07/06 Q1009
LIBD 220050Z VRB03KT 9999 SCT045 07/06 Q1009
LIBD 220020Z VRB02KT 9999 SCT045 07/06 Q1009
LIBD 212350Z VRB01KT 9999 FEW030 SCT045 08/07 Q1010 
LIBD 212320Z VRB03KT 9999 -DZ FEW030 SCT045 08/07 Q1010 
LIBD 212250Z VRB03KT 9999 -DZ FEW030 SCT045 08/07 Q1010 
LIBD 212220Z VRB01KT 9999 -DZ FEW030 SCT045 08/07 Q1010 
LIBD 212150Z VRB01KT 9999 -DZ FEW030 SCT045 08/07 Q1010 
LIBD 212120Z VRB01KT 9999 FEW030 09/07 Q1010
LIBD 212050Z VRB02KT 9999 FEW030 09/06 Q1010
LIBD 212020Z VRB01KT 9999 FEW030 09/06 Q1011
LIBD 211950Z VRB01KT 9999 FEW030 09/07 Q1011
LIBD 211920Z 00000KT 9999 FEW030 09/07 Q1011
LIBD 211850Z 26001KT 9999 FEW030 10/07 Q1011
LIBD 211820Z 00000KT 9999 FEW030 10/07 Q1011
LIBD 211750Z 00000KT 9999 FEW030 10/06 Q1011
LIBD 211720Z 18002KT 9999 FEW030 10/06 Q1011
LIBD 211650Z 17002KT 9999 FEW030 10/06 Q1011
LIBD 211620Z 19003KT 9999 FEW030 11/06 Q1011
LIBD 211550Z VRB03KT 9999 SCT030 12/06 Q1011
LIBD 211520Z 18004KT 140V210 9999 FEW025 SCT045 13/07 Q1011 
LIBD 211450Z 19005KT 140V210 9999 FEW025 SCT045 13/07 Q1011 
LIBD 211420Z 17004KT 120V210 9999 FEW025 SCT045 13/07 Q1012 
LIBD 211350Z VRB03KT 9999 FEW025 SCT045 13/07 Q1012 
LIBD 211320Z 18005KT 140V230 9999 FEW025 SCT040 13/06 Q1012 
LIBD 211250Z 17005KT 110V210 9999 FEW025 SCT040 14/06 Q1012 
LIBD 211220Z 16004KT 110V200 9999 SCT025 SCT040 14/07 Q1012